LiveATC.Net - Listen to live air traffic control over the Internet!


ICAO: EPLS  IATA:   Airport: Leszno Strzyzewi Airport
City: Leszno
Country: Poland   Continent: Europe
EPZG METAR Weather: EPZG 261300Z 18006KT 150V220 9999 FEW020 15/10 Q1005
EPLS ADS-B Flight Tracking (ADSBExchange)
EPLS Flight Activity (FlightAware)
EPLS Webcam:  (Airport Webcams) 

EPLS CTAF/Radio
Feed Status: UP   Listeners: 0
Listen in your browser - HTML5 player (in browser, HTML5)
Click here to listen with your own player (launches your MP3 player)
Archive Access: EPLS CTAF/Radio
FacilityFrequency
Leszno Radio122.305

NOTICE

Unauthorized use prohibited. See LiveATC.net Terms of Service


Airport/ARTCC Code
Frequency Search
(e.g., 124.400, 128.75)
Site-wide search
 


Browse Feeds
Top 50 Feeds
HF Oceanic Feeds
Coverage Map
Bad Weather Areas

LiveATC FAQ
Offer LiveATC feed
Contact LiveATC.net
Press Inquiries

LiveATC on iPhone
LiveATC on Android

LiveATC Mobile
(Mobile browser)

ATC Audio Archives
Interesting Recordings

LiveATC Forums


Home Page
About LiveATC.net


Terms of Use
Privacy Policy

AIRMETs/SIGMETs

FAA Airport Status
NAS Status
Arrival Demand


Server Software By:
Icecast.org
Liquidsoap